Lushton, Nebraska
Current Conditions -  °F | °C
As of 12:35 PM on Wednesday 26 Nov 2014 (Local Time) from KJYR Reporting Station
Overcast Overcast  
Wind Chill: 15°   Ceiling: 1900
Heat Index: 28°   Visibility: 10mi
Dew Point: 21°   Wind: 22mph
Humidity: 74%   Direction: 340°NNW
Pressure: 30.18"   Gusts: 29mph
Location:  40.7857°N, 97.7689°W
Report Text: KJYR 261835Z AUTO 34019G25KT 10SM OVC019 M02/M06 A3018 RMK AO2
Loading
Personal Weather Stations






























Interactive Weather Map New forecast layout! Learn more

10-Day Weather Forecast

Advertisements
Track Severe Weather on mobile